Time;durP1;ratioP1;P1;durP2;ratioP2;P2;SDS_P1;SDS_P2;PMS_P1;PMS_P2;Temp;Humidity;BMP_temperature;BMP_pressure;BME280_temperature;BME280_humidity;BME280_pressure;Samples;Min_cycle;Max_cycle;Signal;HPM_P1;HPM_P2
2021/07/27 00:02:21;;;;;;;7.50;4.60;;;;;;;;;;4898419;29;20108;-70
2021/07/27 00:04:48;;;;;;;8.55;4.57;;;;;;;;;;4899064;29;20140;-71
2021/07/27 00:07:14;;;;;;;9.15;4.82;;;;;;;;;;4892254;29;20105;-70
2021/07/27 00:09:41;;;;;;;7.75;4.90;;;;;;;;;;4879709;29;20099;-70
2021/07/27 00:12:07;;;;;;;6.00;4.28;;;;;;;;;;4893035;29;20084;-70
2021/07/27 00:14:34;;;;;;;6.55;4.65;;;;;;;;;;4880545;29;20556;-70
2021/07/27 00:17:01;;;;;;;11.65;4.75;;;;;;;;;;4883382;29;20056;-70
2021/07/27 00:19:28;;;;;;;8.73;4.80;;;;;;;;;;4884287;29;20048;-70
2021/07/27 00:21:54;;;;;;;8.30;4.93;;;;;;;;;;4898419;29;20103;-70
2021/07/27 00:24:25;;;;;;;7.20;5.15;;;;;;;;;;4898341;29;20488;-70
2021/07/27 00:26:54;;;;;;;7.00;5.15;;;;;;;;;;4882523;29;20107;-70
2021/07/27 00:29:22;;;;;;;10.02;4.57;;;;;;;;;;4880867;29;20056;-70
2021/07/27 00:31:49;;;;;;;12.60;4.95;;;;;;;;;;4883520;29;20059;-70
2021/07/27 00:34:17;;;;;;;10.05;5.13;;;;;;;;;;4878932;29;20057;-70
2021/07/27 00:36:44;;;;;;;7.95;5.15;;;;;;;;;;4880223;29;20089;-70
2021/07/27 00:39:10;;;;;;;12.68;5.50;;;;;;;;;;4879547;29;20544;-69
2021/07/27 00:41:38;;;;;;;9.43;5.53;;;;;;;;;;4879333;29;20092;-70
2021/07/27 00:44:04;;;;;;;9.90;4.82;;;;;;;;;;4879200;29;20108;-70
2021/07/27 00:46:31;;;;;;;7.68;4.88;;;;;;;;;;4879244;29;20053;-70
2021/07/27 00:48:59;;;;;;;8.63;4.97;;;;;;;;;;4879208;29;20049;-70
2021/07/27 00:51:26;;;;;;;9.73;6.38;;;;;;;;;;4879193;29;20096;-70
2021/07/27 00:53:53;;;;;;;11.60;5.97;;;;;;;;;;4898100;29;20061;-70
2021/07/27 00:56:19;;;;;;;8.07;5.05;;;;;;;;;;4897421;29;20091;-70
2021/07/27 00:58:46;;;;;;;8.48;5.10;;;;;;;;;;4862472;29;20088;-70
2021/07/27 01:01:12;;;;;;;6.50;5.32;;;;;;;;;;4879101;29;20081;-70
2021/07/27 01:03:39;;;;;;;9.43;6.05;;;;;;;;;;4896390;29;20088;-70
2021/07/27 01:06:05;;;;;;;8.77;5.55;;;;;;;;;;4897135;29;20492;-70
2021/07/27 01:08:33;;;;;;;12.45;6.53;;;;;;;;;;4897545;29;20052;-70
2021/07/27 01:11:00;;;;;;;12.80;5.80;;;;;;;;;;4896512;29;20057;-70
2021/07/27 01:13:26;;;;;;;8.98;5.82;;;;;;;;;;4864832;29;20089;-70
2021/07/27 01:15:55;;;;;;;9.55;6.13;;;;;;;;;;4882787;29;20420;-71
2021/07/27 01:18:26;;;;;;;13.05;6.43;;;;;;;;;;4891457;29;20056;-71
2021/07/27 01:37:33;;;;;;;6.93;5.78;;;;;;;;;;4890171;29;20048;-70
2021/07/27 01:40:00;;;;;;;9.63;5.63;;;;;;;;;;4878425;29;20081;-70
2021/07/27 01:42:26;;;;;;;11.77;6.20;;;;;;;;;;4878499;29;20053;-70
2021/07/27 01:44:53;;;;;;;11.75;6.53;;;;;;;;;;4884603;29;20102;-70
2021/07/27 01:47:20;;;;;;;10.65;6.85;;;;;;;;;;4878549;29;20056;-71
2021/07/27 01:49:48;;;;;;;15.18;6.75;;;;;;;;;;4878359;29;20049;-70
2021/07/27 01:52:16;;;;;;;16.83;7.35;;;;;;;;;;4878457;29;20144;-70
2021/07/27 01:54:51;;;;;;;17.23;8.00;;;;;;;;;;4878136;29;20144;-71
2021/07/27 01:57:19;;;;;;;12.05;6.38;;;;;;;;;;4879433;29;20082;-70
2021/07/27 01:59:56;;;;;;;14.80;6.50;;;;;;;;;;4878157;29;20092;-69
2021/07/27 02:02:23;;;;;;;12.55;6.93;;;;;;;;;;4878050;29;20087;-68
2021/07/27 02:04:49;;;;;;;11.43;5.82;;;;;;;;;;4877918;29;20059;-69
2021/07/27 02:07:16;;;;;;;10.25;6.30;;;;;;;;;;4891561;29;20088;-70
2021/07/27 02:09:44;;;;;;;8.77;6.03;;;;;;;;;;4877950;29;20081;-70
2021/07/27 02:12:18;;;;;;;12.23;6.65;;;;;;;;;;4889697;29;20098;-70
2021/07/27 02:17:31;;;;;;;14.40;5.55;;;;;;;;;;4894955;29;20532;-70
2021/07/27 02:20:02;;;;;;;10.52;6.13;;;;;;;;;;4878079;29;20080;-70
2021/07/27 02:22:34;;;;;;;11.63;6.78;;;;;;;;;;4877961;29;20079;-70
2021/07/27 02:25:01;;;;;;;10.57;6.23;;;;;;;;;;4878011;29;20064;-69
2021/07/27 02:27:27;;;;;;;12.02;6.15;;;;;;;;;;4877876;29;20117;-69
2021/07/27 02:29:55;;;;;;;12.25;5.93;;;;;;;;;;4889462;29;20056;-71
2021/07/27 02:32:21;;;;;;;17.20;6.25;;;;;;;;;;4896402;29;20048;-69
2021/07/27 02:34:48;;;;;;;14.07;6.30;;;;;;;;;;4896395;29;20496;-69
2021/07/27 02:37:15;;;;;;;12.52;6.65;;;;;;;;;;4895628;29;20084;-70
2021/07/27 02:39:42;;;;;;;12.02;6.22;;;;;;;;;;4893133;29;20081;-69
2021/07/27 02:42:08;;;;;;;15.65;6.70;;;;;;;;;;4877812;29;20053;-69
2021/07/27 02:44:35;;;;;;;11.40;6.80;;;;;;;;;;4882660;29;20147;-70
2021/07/27 02:47:04;;;;;;;9.73;5.85;;;;;;;;;;4896216;29;20135;-70
2021/07/27 02:49:31;;;;;;;13.85;6.07;;;;;;;;;;4896477;29;20104;-69
2021/07/27 02:51:58;;;;;;;11.75;6.38;;;;;;;;;;4888957;29;20091;-69
2021/07/27 02:54:24;;;;;;;13.02;6.40;;;;;;;;;;4877584;29;20057;-69
2021/07/27 02:56:51;;;;;;;14.50;7.32;;;;;;;;;;4889549;29;20564;-70
2021/07/27 02:59:17;;;;;;;11.68;7.25;;;;;;;;;;4889664;29;20085;-70
2021/07/27 03:01:47;;;;;;;13.73;7.55;;;;;;;;;;4888774;29;20571;-70
2021/07/27 03:04:15;;;;;;;10.52;7.35;;;;;;;;;;4881643;29;20496;-70
2021/07/27 03:06:45;;;;;;;10.88;6.47;;;;;;;;;;4885595;29;20099;-69
2021/07/27 03:10:17;;;;;;;14.20;7.40;;;;;;;;;;4877463;29;20508;-70
2021/07/27 03:12:04;;;;;;;15.00;8.50;;;;;;;;;;4882839;29;20080;-70
2021/07/27 03:14:31;;;;;;;15.20;7.30;;;;;;;;;;4895979;29;20084;-70
2021/07/27 03:16:59;;;;;;;13.40;7.63;;;;;;;;;;4895968;29;20112;-70
2021/07/27 03:19:25;;;;;;;9.48;7.35;;;;;;;;;;4896002;29;20475;-70
2021/07/27 03:21:52;;;;;;;11.30;7.47;;;;;;;;;;4899274;29;20107;-69
2021/07/27 03:24:18;;;;;;;12.45;7.80;;;;;;;;;;4898387;29;20087;-69
2021/07/27 03:26:45;;;;;;;11.57;7.90;;;;;;;;;;4899137;29;20056;-69
2021/07/27 03:29:11;;;;;;;11.85;8.05;;;;;;;;;;4892255;29;20093;-69
2021/07/27 03:31:38;;;;;;;10.85;7.45;;;;;;;;;;4884810;29;20080;-69
2021/07/27 03:34:04;;;;;;;17.38;7.60;;;;;;;;;;4899206;29;20501;-69
2021/07/27 03:36:31;;;;;;;12.73;7.40;;;;;;;;;;4898692;29;20095;-68
2021/07/27 03:38:58;;;;;;;12.80;7.93;;;;;;;;;;4899155;29;20096;-69
2021/07/27 03:41:25;;;;;;;13.60;7.25;;;;;;;;;;4899172;29;20110;-69
2021/07/27 03:43:52;;;;;;;11.00;7.10;;;;;;;;;;4890197;29;20095;-69
2021/07/27 03:46:19;;;;;;;11.45;7.68;;;;;;;;;;4887167;29;20080;-69
2021/07/27 03:48:45;;;;;;;13.60;8.52;;;;;;;;;;4898616;29;20397;-69
2021/07/27 03:51:13;;;;;;;12.63;9.00;;;;;;;;;;4899156;29;20096;-69
2021/07/27 03:53:39;;;;;;;13.48;9.25;;;;;;;;;;4898775;29;20048;-70
2021/07/27 03:56:12;;;;;;;11.65;7.85;;;;;;;;;;4898753;29;20053;-69
2021/07/27 03:58:42;;;;;;;10.00;7.82;;;;;;;;;;4899072;29;20095;-69
2021/07/27 04:01:09;;;;;;;14.32;7.32;;;;;;;;;;4898994;29;20048;-70
2021/07/27 04:03:36;;;;;;;11.55;6.63;;;;;;;;;;4898655;29;20100;-69
2021/07/27 04:06:03;;;;;;;11.52;6.70;;;;;;;;;;4894422;29;20113;-69
2021/07/27 04:08:29;;;;;;;10.27;7.25;;;;;;;;;;4891789;29;20091;-70
2021/07/27 04:11:03;;;;;;;9.88;6.70;;;;;;;;;;4898193;29;20080;-69
2021/07/27 04:13:33;;;;;;;10.45;7.18;;;;;;;;;;4890056;29;20096;-69
2021/07/27 04:16:01;;;;;;;10.63;7.63;;;;;;;;;;4891095;29;20064;-69
2021/07/27 04:18:28;;;;;;;14.07;8.90;;;;;;;;;;4875010;29;20049;-69
2021/07/27 04:20:58;;;;;;;11.82;7.75;;;;;;;;;;4879423;29;20093;-68
2021/07/27 04:23:24;;;;;;;13.90;7.82;;;;;;;;;;4890590;29;20513;-68
2021/07/27 04:25:51;;;;;;;14.30;7.72;;;;;;;;;;4890032;29;20096;-67
2021/07/27 04:28:17;;;;;;;9.35;8.02;;;;;;;;;;4898433;29;20508;-68
2021/07/27 04:30:44;;;;;;;11.77;7.15;;;;;;;;;;4895222;29;20481;-68
2021/07/27 04:33:11;;;;;;;12.93;6.78;;;;;;;;;;4887253;29;20060;-68
2021/07/27 04:35:38;;;;;;;10.88;7.38;;;;;;;;;;4879594;29;20056;-68
2021/07/27 04:38:05;;;;;;;10.45;6.97;;;;;;;;;;4879327;29;20465;-68
2021/07/27 04:40:31;;;;;;;9.18;6.93;;;;;;;;;;4879291;29;20116;-67
2021/07/27 04:42:59;;;;;;;12.20;7.18;;;;;;;;;;4879304;29;20099;-68
2021/07/27 04:45:27;;;;;;;9.32;6.65;;;;;;;;;;4879147;29;20060;-67
2021/07/27 04:47:54;;;;;;;11.60;7.57;;;;;;;;;;4879180;29;20089;-69
2021/07/27 04:50:21;;;;;;;13.48;7.25;;;;;;;;;;4879357;29;20057;-68
2021/07/27 04:52:57;;;;;;;10.38;7.30;;;;;;;;;;4879024;29;20113;-67
2021/07/27 04:55:25;;;;;;;10.70;7.57;;;;;;;;;;4879350;29;20053;-68
2021/07/27 04:57:51;;;;;;;11.48;8.15;;;;;;;;;;4879045;29;20485;-68
2021/07/27 05:00:24;;;;;;;10.70;7.40;;;;;;;;;;4879190;29;20086;-68
2021/07/27 05:02:51;;;;;;;8.45;7.47;;;;;;;;;;4878859;29;20136;-68
2021/07/27 05:05:18;;;;;;;11.68;7.45;;;;;;;;;;4879166;29;20480;-67
2021/07/27 05:07:45;;;;;;;11.38;7.72;;;;;;;;;;4878773;29;20099;-67
2021/07/27 05:10:12;;;;;;;11.32;6.90;;;;;;;;;;4878984;29;20049;-67
2021/07/27 05:12:39;;;;;;;10.63;7.90;;;;;;;;;;4878626;29;20099;-68
2021/07/27 05:15:06;;;;;;;11.25;7.53;;;;;;;;;;4879102;29;20111;-68
2021/07/27 05:17:32;;;;;;;10.00;6.75;;;;;;;;;;4878640;29;20088;-67
2021/07/27 05:19:59;;;;;;;12.07;7.13;;;;;;;;;;4878565;29;20080;-67
2021/07/27 05:22:25;;;;;;;13.50;7.53;;;;;;;;;;4878574;29;20080;-67
2021/07/27 05:24:53;;;;;;;14.27;8.45;;;;;;;;;;4883368;29;20098;-68
2021/07/27 05:27:23;;;;;;;11.25;8.07;;;;;;;;;;4881640;29;20545;-67
2021/07/27 05:29:53;;;;;;;14.82;7.93;;;;;;;;;;4877989;29;20136;-67
2021/07/27 05:32:21;;;;;;;9.73;7.85;;;;;;;;;;4878515;29;20120;-68
2021/07/27 05:34:48;;;;;;;15.30;8.60;;;;;;;;;;4878018;29;20081;-68
2021/07/27 05:37:15;;;;;;;12.80;8.50;;;;;;;;;;4878170;29;20133;-67
2021/07/27 05:39:41;;;;;;;13.48;8.45;;;;;;;;;;4870379;29;20113;-67
2021/07/27 05:42:08;;;;;;;12.90;9.13;;;;;;;;;;4875479;29;20466;-69
2021/07/27 05:44:34;;;;;;;13.27;8.65;;;;;;;;;;4873346;29;20101;-68
2021/07/27 05:47:01;;;;;;;10.57;7.72;;;;;;;;;;4869099;29;20092;-68
2021/07/27 05:49:28;;;;;;;15.90;9.02;;;;;;;;;;4878457;29;20277;-67
2021/07/27 05:51:55;;;;;;;14.52;8.15;;;;;;;;;;4878037;29;20433;-68
2021/07/27 05:54:22;;;;;;;13.98;8.43;;;;;;;;;;4878264;29;20052;-67
2021/07/27 05:56:49;;;;;;;11.45;7.95;;;;;;;;;;4877953;29;20098;-68
2021/07/27 05:59:16;;;;;;;13.07;8.82;;;;;;;;;;4878307;29;20093;-68
2021/07/27 06:01:44;;;;;;;11.30;8.57;;;;;;;;;;4876793;29;20049;-68
2021/07/27 06:04:10;;;;;;;16.73;8.85;;;;;;;;;;4895895;29;20052;-68
2021/07/27 06:06:37;;;;;;;9.63;7.90;;;;;;;;;;4895524;29;20052;-70
2021/07/27 06:09:06;;;;;;;11.07;8.13;;;;;;;;;;4893227;29;20112;-70
2021/07/27 06:11:34;;;;;;;12.95;7.97;;;;;;;;;;4894859;29;20084;-70
2021/07/27 06:14:01;;;;;;;9.98;7.38;;;;;;;;;;4894753;29;20048;-69
2021/07/27 06:16:28;;;;;;;9.73;6.35;;;;;;;;;;4894705;29;20052;-70
2021/07/27 06:18:55;;;;;;;11.23;6.72;;;;;;;;;;4894770;29;20057;-70
2021/07/27 06:21:21;;;;;;;10.40;6.78;;;;;;;;;;4894100;29;20091;-69
2021/07/27 06:23:48;;;;;;;8.88;7.15;;;;;;;;;;4894483;29;20056;-70
2021/07/27 06:26:15;;;;;;;8.10;6.13;;;;;;;;;;4894578;29;20107;-70
2021/07/27 06:28:43;;;;;;;9.52;7.25;;;;;;;;;;4894730;29;20519;-69
2021/07/27 06:31:12;;;;;;;10.63;6.57;;;;;;;;;;4894707;29;20091;-69
2021/07/27 06:33:39;;;;;;;7.20;5.75;;;;;;;;;;4878990;29;20136;-70
2021/07/27 06:36:06;;;;;;;8.65;6.13;;;;;;;;;;4875668;29;20112;-70
2021/07/27 06:38:33;;;;;;;7.70;5.40;;;;;;;;;;4875864;29;20109;-70
2021/07/27 06:41:00;;;;;;;6.30;4.75;;;;;;;;;;4875702;29;20051;-69
2021/07/27 06:43:27;;;;;;;6.45;5.00;;;;;;;;;;4889171;29;20107;-70
2021/07/27 06:45:54;;;;;;;6.15;4.57;;;;;;;;;;4893139;29;20091;-68
2021/07/27 06:48:21;;;;;;;5.88;4.82;;;;;;;;;;4893928;29;20428;-69
2021/07/27 06:50:49;;;;;;;8.80;5.63;;;;;;;;;;4894146;29;20476;-70
2021/07/27 06:53:15;;;;;;;9.13;5.72;;;;;;;;;;4894397;29;20088;-70
2021/07/27 06:55:42;;;;;;;9.52;5.28;;;;;;;;;;4897559;29;20091;-70
2021/07/27 06:58:09;;;;;;;7.30;5.10;;;;;;;;;;4898048;29;20084;-70
2021/07/27 07:00:36;;;;;;;8.20;5.38;;;;;;;;;;4897476;29;20143;-70
2021/07/27 07:03:03;;;;;;;6.97;4.97;;;;;;;;;;4897965;29;20481;-68
2021/07/27 07:05:29;;;;;;;9.23;5.38;;;;;;;;;;4897995;29;20065;-68
2021/07/27 07:07:56;;;;;;;8.80;5.43;;;;;;;;;;4897785;29;20143;-68
2021/07/27 07:10:22;;;;;;;8.70;4.75;;;;;;;;;;4897962;29;20084;-67
2021/07/27 07:12:52;;;;;;;7.93;4.65;;;;;;;;;;4909841;29;20059;-66
2021/07/27 07:15:19;;;;;;;8.23;5.50;;;;;;;;;;4920526;29;20056;-67
2021/07/27 07:17:46;;;;;;;9.65;4.95;;;;;;;;;;4921753;29;20041;-67
2021/07/27 07:20:14;;;;;;;7.35;5.15;;;;;;;;;;4921792;29;20029;-68
2021/07/27 07:22:40;;;;;;;7.88;4.65;;;;;;;;;;4917281;29;20052;-66
2021/07/27 07:25:07;;;;;;;7.75;5.10;;;;;;;;;;4918772;29;20063;-66
2021/07/27 07:27:34;;;;;;;7.25;4.30;;;;;;;;;;4903935;29;20061;-66
2021/07/27 07:30:02;;;;;;;8.88;4.60;;;;;;;;;;4904095;29;20052;-67
2021/07/27 07:32:28;;;;;;;6.97;4.90;;;;;;;;;;4904285;29;20053;-67
2021/07/27 07:34:55;;;;;;;7.03;5.00;;;;;;;;;;4895229;29;20064;-68
2021/07/27 07:37:21;;;;;;;6.53;5.15;;;;;;;;;;4899947;29;20081;-68
2021/07/27 07:39:49;;;;;;;8.63;5.30;;;;;;;;;;4897687;29;20057;-72
2021/07/27 07:42:15;;;;;;;5.97;4.85;;;;;;;;;;4899428;29;20141;-71
2021/07/27 07:44:42;;;;;;;9.85;5.45;;;;;;;;;;4898069;29;20069;-72
2021/07/27 07:47:08;;;;;;;7.60;5.15;;;;;;;;;;4893040;29;20045;-67
2021/07/27 07:49:35;;;;;;;6.22;4.68;;;;;;;;;;4892986;29;20056;-68
2021/07/27 07:52:02;;;;;;;6.50;4.80;;;;;;;;;;4892385;29;20037;-68
2021/07/27 07:54:31;;;;;;;8.30;4.45;;;;;;;;;;4895072;29;20119;-67
2021/07/27 07:56:57;;;;;;;7.75;4.88;;;;;;;;;;4893978;29;20458;-68
2021/07/27 07:59:24;;;;;;;7.13;4.90;;;;;;;;;;4890875;29;20052;-67
2021/07/27 08:01:56;;;;;;;8.10;4.85;;;;;;;;;;4889963;29;20045;-67
2021/07/27 08:04:24;;;;;;;5.00;4.20;;;;;;;;;;4889641;29;20460;-68
2021/07/27 08:06:52;;;;;;;7.35;4.35;;;;;;;;;;4893555;29;20321;-71
2021/07/27 08:09:19;;;;;;;8.55;5.03;;;;;;;;;;4897141;29;20049;-68
2021/07/27 08:11:45;;;;;;;3.95;3.55;;;;;;;;;;4887752;29;20049;-67
2021/07/27 08:14:13;;;;;;;6.82;4.85;;;;;;;;;;4889219;29;20352;-69
2021/07/27 08:16:40;;;;;;;5.38;3.95;;;;;;;;;;4888165;29;20048;-68
2021/07/27 08:19:06;;;;;;;7.28;4.28;;;;;;;;;;4886849;29;20053;-68
2021/07/27 08:21:33;;;;;;;7.13;3.80;;;;;;;;;;4895334;29;20041;-68
2021/07/27 08:24:00;;;;;;;7.03;4.03;;;;;;;;;;4891417;29;20063;-68
2021/07/27 08:26:27;;;;;;;5.80;3.80;;;;;;;;;;4890877;29;20187;-68
2021/07/27 08:28:54;;;;;;;5.47;4.15;;;;;;;;;;4885204;29;20053;-69
2021/07/27 08:31:20;;;;;;;5.28;4.53;;;;;;;;;;4888221;29;20103;-68
2021/07/27 08:33:47;;;;;;;6.22;4.47;;;;;;;;;;4887244;29;20045;-70
2021/07/27 08:36:13;;;;;;;6.53;4.50;;;;;;;;;;4887129;29;20081;-69
2021/07/27 08:38:40;;;;;;;6.30;4.95;;;;;;;;;;4884533;29;20056;-68
2021/07/27 08:41:07;;;;;;;6.32;4.40;;;;;;;;;;4890982;29;20053;-68
2021/07/27 08:43:33;;;;;;;5.20;3.85;;;;;;;;;;4889401;29;20070;-69
2021/07/27 08:46:00;;;;;;;7.13;4.53;;;;;;;;;;4887717;29;20067;-70
2021/07/27 08:48:27;;;;;;;5.60;4.40;;;;;;;;;;4891402;29;20052;-69
2021/07/27 08:50:53;;;;;;;7.35;5.07;;;;;;;;;;4888373;29;20085;-69
2021/07/27 08:53:20;;;;;;;5.07;3.50;;;;;;;;;;4892581;29;20056;-68
2021/07/27 08:55:47;;;;;;;6.35;4.07;;;;;;;;;;4888189;29;20046;-67
2021/07/27 08:58:13;;;;;;;7.53;4.55;;;;;;;;;;4889191;29;20651;-70
2021/07/27 09:00:40;;;;;;;4.60;3.90;;;;;;;;;;4891942;29;20052;-69
2021/07/27 09:03:16;;;;;;;4.85;4.10;;;;;;;;;;4891055;29;20083;-69
2021/07/27 09:05:43;;;;;;;4.20;3.80;;;;;;;;;;4891812;29;20051;-69
2021/07/27 09:08:10;;;;;;;4.97;4.07;;;;;;;;;;4890104;29;20068;-69
2021/07/27 09:10:38;;;;;;;5.35;3.47;;;;;;;;;;4877684;29;20091;-70
2021/07/27 09:13:08;;;;;;;5.28;3.92;;;;;;;;;;4874089;29;20069;-70
2021/07/27 09:15:37;;;;;;;4.32;3.50;;;;;;;;;;4880725;29;20113;-70
2021/07/27 09:18:06;;;;;;;4.40;4.00;;;;;;;;;;4874360;29;20088;-69
2021/07/27 09:20:40;;;;;;;4.90;4.22;;;;;;;;;;4875811;29;20072;-69
2021/07/27 09:23:15;;;;;;;7.10;5.03;;;;;;;;;;4876382;29;20488;-70
2021/07/27 09:25:52;;;;;;;6.85;4.50;;;;;;;;;;4872159;29;20543;-70
2021/07/27 09:28:20;;;;;;;5.18;4.50;;;;;;;;;;4874979;29;20080;-70
2021/07/27 09:30:48;;;;;;;7.97;4.88;;;;;;;;;;4793325;29;29440;-70
2021/07/27 09:33:16;;;;;;;5.43;4.28;;;;;;;;;;4884974;29;20044;-70
2021/07/27 09:35:45;;;;;;;7.03;4.25;;;;;;;;;;4899681;29;20099;-69
2021/07/27 09:38:17;;;;;;;8.65;4.45;;;;;;;;;;4894320;29;20119;-69
2021/07/27 09:40:48;;;;;;;5.68;4.68;;;;;;;;;;4896419;29;20539;-70
2021/07/27 09:43:32;;;;;;;6.15;4.97;;;;;;;;;;4893892;29;20048;-70
2021/07/27 09:46:00;;;;;;;5.40;4.32;;;;;;;;;;4892447;29;20091;-70
2021/07/27 09:48:29;;;;;;;5.78;4.05;;;;;;;;;;4897945;29;20056;-70
2021/07/27 09:50:56;;;;;;;7.10;4.68;;;;;;;;;;4898610;29;20083;-70
2021/07/27 09:53:23;;;;;;;4.95;4.45;;;;;;;;;;4895626;29;20051;-70
2021/07/27 09:55:51;;;;;;;6.57;4.18;;;;;;;;;;4896380;29;20492;-70
2021/07/27 09:58:18;;;;;;;7.13;4.95;;;;;;;;;;4893538;29;20508;-69
2021/07/27 10:00:51;;;;;;;4.75;4.28;;;;;;;;;;4893828;29;20084;-69
2021/07/27 10:03:25;;;;;;;6.45;4.13;;;;;;;;;;4894319;29;20574;-67
2021/07/27 10:05:57;;;;;;;5.90;4.40;;;;;;;;;;4870231;29;20071;-70
2021/07/27 10:08:31;;;;;;;8.27;4.07;;;;;;;;;;4894525;29;20409;-68
2021/07/27 10:11:10;;;;;;;5.55;4.63;;;;;;;;;;4891461;29;20095;-68
2021/07/27 10:13:46;;;;;;;4.57;3.78;;;;;;;;;;4892896;29;20110;-66
2021/07/27 10:16:20;;;;;;;3.92;3.53;;;;;;;;;;4894867;29;20067;-68
2021/07/27 10:18:47;;;;;;;7.20;4.40;;;;;;;;;;4895918;29;20048;-68
2021/07/27 10:21:25;;;;;;;8.18;4.70;;;;;;;;;;4890264;29;20052;-69
2021/07/27 10:23:53;;;;;;;4.50;3.65;;;;;;;;;;4892981;29;20121;-67
2021/07/27 10:26:27;;;;;;;8.23;4.80;;;;;;;;;;4893329;29;20071;-66
2021/07/27 10:28:54;;;;;;;5.00;4.40;;;;;;;;;;4899149;29;20083;-67
2021/07/27 10:31:32;;;;;;;4.68;3.83;;;;;;;;;;4898803;29;20060;-67
2021/07/27 10:34:00;;;;;;;5.15;3.85;;;;;;;;;;4897747;29;20125;-68
2021/07/27 10:36:27;;;;;;;5.63;4.40;;;;;;;;;;4896475;29;20131;-69
2021/07/27 10:39:15;;;;;;;4.93;4.15;;;;;;;;;;4896058;29;20140;-66
2021/07/27 10:41:51;;;;;;;4.72;4.10;;;;;;;;;;4889893;29;20095;-67
2021/07/27 10:44:20;;;;;;;6.38;4.45;;;;;;;;;;4897013;29;20107;-67
2021/07/27 10:46:49;;;;;;;6.30;4.15;;;;;;;;;;4897394;29;20056;-66
2021/07/27 10:49:22;;;;;;;6.50;4.63;;;;;;;;;;4899317;29;20049;-67
2021/07/27 10:51:50;;;;;;;6.15;4.25;;;;;;;;;;4894424;29;20091;-66
2021/07/27 10:54:19;;;;;;;4.43;3.63;;;;;;;;;;4897199;29;20080;-67
2021/07/27 10:56:59;;;;;;;4.22;3.83;;;;;;;;;;4895379;29;20080;-66
2021/07/27 10:59:27;;;;;;;5.68;4.13;;;;;;;;;;4897325;29;20052;-67
2021/07/27 11:01:56;;;;;;;9.02;4.00;;;;;;;;;;4896506;29;20515;-68
2021/07/27 11:04:27;;;;;;;5.32;4.10;;;;;;;;;;4897135;29;20053;-65
2021/07/27 11:07:05;;;;;;;4.60;4.20;;;;;;;;;;4896933;29;20087;-67
2021/07/27 11:09:32;;;;;;;5.63;4.55;;;;;;;;;;4895543;29;20045;-68
2021/07/27 11:11:58;;;;;;;4.90;3.88;;;;;;;;;;4896744;29;20096;-66
2021/07/27 11:14:25;;;;;;;4.85;3.97;;;;;;;;;;4896894;29;20044;-67
2021/07/27 11:16:52;;;;;;;12.07;5.20;;;;;;;;;;4896655;29;20064;-67
2021/07/27 11:19:26;;;;;;;6.93;4.20;;;;;;;;;;4897519;29;20053;-65
2021/07/27 11:21:56;;;;;;;4.55;4.10;;;;;;;;;;4896248;29;20089;-65
2021/07/27 11:24:23;;;;;;;6.13;4.38;;;;;;;;;;4893644;29;20059;-65
2021/07/27 11:26:51;;;;;;;5.90;4.63;;;;;;;;;;4895441;29;20108;-65
2021/07/27 11:29:18;;;;;;;5.15;3.92;;;;;;;;;;4896710;29;20095;-66
2021/07/27 11:31:49;;;;;;;4.93;4.18;;;;;;;;;;4896599;29;20087;-65
2021/07/27 11:34:26;;;;;;;5.10;4.60;;;;;;;;;;4897158;29;20080;-65
2021/07/27 11:36:53;;;;;;;8.98;5.57;;;;;;;;;;4896264;29;20088;-65
2021/07/27 11:39:19;;;;;;;6.05;4.05;;;;;;;;;;4896361;29;20080;-65
2021/07/27 11:41:59;;;;;;;4.03;3.58;;;;;;;;;;4893566;29;20456;-65
2021/07/27 11:44:26;;;;;;;3.42;3.13;;;;;;;;;;4896411;29;20087;-65
2021/07/27 11:46:53;;;;;;;4.45;3.47;;;;;;;;;;4895846;29;20071;-65
2021/07/27 11:49:20;;;;;;;4.13;3.72;;;;;;;;;;4895891;29;20102;-65
2021/07/27 11:51:46;;;;;;;5.25;4.35;;;;;;;;;;4895948;29;20048;-65
2021/07/27 11:54:24;;;;;;;4.72;4.05;;;;;;;;;;4896164;29;20079;-65
2021/07/27 11:56:50;;;;;;;5.88;4.20;;;;;;;;;;4897489;29;20092;-65
2021/07/27 11:59:28;;;;;;;5.82;4.28;;;;;;;;;;4896174;29;20099;-65
2021/07/27 12:01:55;;;;;;;4.38;3.90;;;;;;;;;;4895417;29;20056;-66
2021/07/27 12:04:22;;;;;;;7.35;4.15;;;;;;;;;;4895873;29;20096;-66
2021/07/27 12:06:52;;;;;;;4.30;3.90;;;;;;;;;;4895686;29;20049;-66
2021/07/27 12:09:26;;;;;;;4.07;3.60;;;;;;;;;;4896341;29;20089;-66
2021/07/27 12:11:53;;;;;;;4.15;3.72;;;;;;;;;;4895561;29;20124;-67
2021/07/27 12:14:20;;;;;;;3.83;3.22;;;;;;;;;;4895219;29;20198;-67
2021/07/27 12:16:50;;;;;;;3.65;3.20;;;;;;;;;;4895443;29;20056;-66
2021/07/27 12:19:16;;;;;;;5.22;3.78;;;;;;;;;;4895372;29;20060;-67
2021/07/27 12:21:43;;;;;;;4.63;3.38;;;;;;;;;;4892355;29;20523;-65
2021/07/27 12:24:09;;;;;;;4.13;3.58;;;;;;;;;;4894432;29;20084;-67
2021/07/27 12:26:36;;;;;;;4.28;3.88;;;;;;;;;;4895078;29;20084;-66
2021/07/27 12:29:04;;;;;;;5.35;4.45;;;;;;;;;;4894767;29;20583;-66
2021/07/27 12:31:30;;;;;;;5.20;3.78;;;;;;;;;;4895568;29;20080;-66
2021/07/27 12:33:57;;;;;;;3.70;3.40;;;;;;;;;;4894773;29;20076;-66
2021/07/27 12:36:24;;;;;;;4.13;3.60;;;;;;;;;;4894667;29;20053;-66
2021/07/27 12:38:50;;;;;;;3.50;3.20;;;;;;;;;;4894945;29;20084;-66
2021/07/27 12:41:17;;;;;;;4.55;3.63;;;;;;;;;;4893278;29;20132;-66
2021/07/27 12:43:43;;;;;;;3.80;3.30;;;;;;;;;;4896190;29;20586;-66
2021/07/27 12:46:10;;;;;;;3.80;3.40;;;;;;;;;;4894665;29;20746;-67
2021/07/27 12:48:36;;;;;;;3.92;3.53;;;;;;;;;;4895002;29;20055;-66
2021/07/27 12:51:03;;;;;;;4.80;3.50;;;;;;;;;;4892048;29;20076;-66
2021/07/27 12:53:29;;;;;;;4.22;3.13;;;;;;;;;;4894740;29;20096;-66
2021/07/27 12:55:58;;;;;;;4.47;3.00;;;;;;;;;;4894748;29;20080;-68
2021/07/27 12:58:25;;;;;;;5.70;3.00;;;;;;;;;;4893639;29;20048;-66
2021/07/27 13:00:51;;;;;;;3.58;3.00;;;;;;;;;;4893705;29;20107;-66
2021/07/27 13:03:18;;;;;;;3.63;3.13;;;;;;;;;;4893788;29;20136;-66
2021/07/27 13:05:45;;;;;;;5.90;3.30;;;;;;;;;;4894616;29;20059;-67
2021/07/27 13:08:13;;;;;;;3.60;2.60;;;;;;;;;;4899265;29;20127;-66
2021/07/27 13:10:39;;;;;;;4.18;2.80;;;;;;;;;;4894764;29;20044;-66
2021/07/27 13:13:06;;;;;;;3.20;2.90;;;;;;;;;;4894478;29;20469;-66
2021/07/27 13:15:32;;;;;;;3.10;2.83;;;;;;;;;;4891978;29;20080;-66
2021/07/27 13:17:59;;;;;;;3.85;2.67;;;;;;;;;;4893811;29;20052;-66
2021/07/27 13:20:26;;;;;;;3.25;2.95;;;;;;;;;;4894110;29;20059;-66
2021/07/27 13:22:52;;;;;;;3.35;3.05;;;;;;;;;;4889999;29;20105;-66
2021/07/27 13:25:19;;;;;;;4.28;3.22;;;;;;;;;;4895707;29;20083;-66
2021/07/27 13:27:45;;;;;;;3.25;2.95;;;;;;;;;;4893449;29;20159;-66
2021/07/27 13:30:12;;;;;;;3.17;2.88;;;;;;;;;;4894177;29;20045;-66
2021/07/27 13:32:39;;;;;;;4.75;3.05;;;;;;;;;;4893484;29;20119;-66
2021/07/27 13:35:06;;;;;;;4.53;2.92;;;;;;;;;;4894328;29;20084;-66
2021/07/27 13:37:33;;;;;;;5.57;3.22;;;;;;;;;;4894416;29;20136;-66
2021/07/27 13:39:59;;;;;;;6.30;3.60;;;;;;;;;;4893687;29;20564;-66
2021/07/27 13:42:26;;;;;;;3.83;3.35;;;;;;;;;;4893541;29;20140;-66
2021/07/27 13:44:53;;;;;;;4.13;3.05;;;;;;;;;;4894582;29;20440;-66
2021/07/27 13:47:20;;;;;;;3.58;3.28;;;;;;;;;;4898839;29;20052;-66
2021/07/27 13:49:47;;;;;;;4.63;3.65;;;;;;;;;;4893405;29;20051;-66
2021/07/27 13:52:13;;;;;;;4.78;3.60;;;;;;;;;;4898451;29;20088;-66
2021/07/27 13:54:40;;;;;;;4.15;3.40;;;;;;;;;;4897721;29;20119;-66
2021/07/27 13:57:07;;;;;;;3.63;3.30;;;;;;;;;;4893904;29;20060;-66
2021/07/27 13:59:35;;;;;;;3.75;3.38;;;;;;;;;;4892468;29;20064;-65
2021/07/27 14:02:02;;;;;;;4.95;2.75;;;;;;;;;;4943456;23;20490;-65
2021/07/27 14:04:31;;;;;;;3.30;3.00;;;;;;;;;;4928310;29;20055;-64
2021/07/27 14:06:58;;;;;;;2.97;2.70;;;;;;;;;;4933771;29;20071;-65
2021/07/27 14:09:25;;;;;;;3.80;2.95;;;;;;;;;;4916795;29;20047;-65
2021/07/27 14:11:51;;;;;;;3.45;3.15;;;;;;;;;;4933996;29;20126;-66
2021/07/27 14:14:18;;;;;;;3.45;3.15;;;;;;;;;;4934395;29;20168;-66
2021/07/27 14:16:45;;;;;;;4.95;3.30;;;;;;;;;;4929664;29;20052;-66
2021/07/27 14:19:12;;;;;;;3.97;2.95;;;;;;;;;;4932917;29;20051;-66
2021/07/27 14:21:38;;;;;;;5.03;3.40;;;;;;;;;;4933194;29;20083;-65
2021/07/27 14:24:05;;;;;;;4.10;3.13;;;;;;;;;;4928918;29;20090;-66
2021/07/27 14:26:32;;;;;;;5.25;3.30;;;;;;;;;;4930968;29;20079;-65
2021/07/27 14:28:59;;;;;;;6.40;3.55;;;;;;;;;;4930501;29;20051;-68
2021/07/27 14:31:25;;;;;;;4.32;3.92;;;;;;;;;;4925326;29;20052;-65
2021/07/27 14:33:52;;;;;;;4.32;3.60;;;;;;;;;;4925959;29;20087;-65
2021/07/27 14:36:19;;;;;;;4.68;4.25;;;;;;;;;;4924564;29;20079;-65
2021/07/27 14:38:46;;;;;;;4.25;3.13;;;;;;;;;;4924247;29;20082;-66
2021/07/27 14:41:13;;;;;;;6.18;3.92;;;;;;;;;;4921322;29;20086;-66
2021/07/27 14:43:40;;;;;;;4.45;3.95;;;;;;;;;;4924377;29;20095;-66
2021/07/27 14:46:07;;;;;;;4.18;3.78;;;;;;;;;;4925863;29;20056;-66
2021/07/27 14:48:35;;;;;;;5.53;3.45;;;;;;;;;;4920587;29;20127;-65
2021/07/27 14:51:02;;;;;;;6.53;3.63;;;;;;;;;;4914686;29;20106;-66
2021/07/27 14:53:30;;;;;;;4.35;3.33;;;;;;;;;;4926638;29;20091;-66
2021/07/27 14:55:57;;;;;;;3.97;3.60;;;;;;;;;;4920777;29;20083;-66
2021/07/27 14:58:23;;;;;;;6.18;4.05;;;;;;;;;;4919382;29;20087;-66
2021/07/27 15:00:50;;;;;;;3.75;3.40;;;;;;;;;;4915757;29;20087;-65
2021/07/27 15:03:16;;;;;;;4.25;3.78;;;;;;;;;;4934078;29;20075;-68